sensor_id;sensor_type;location;lat;lon;timestamp;P1;durP1;ratioP1;P2;durP2;ratioP2
50946;SDS011;36955;47.416;7.716;2022-10-22T00:02:17;1.02;;;0.60;;
50946;SDS011;36955;47.416;7.716;2022-10-22T00:04:43;0.73;;;0.50;;
50946;SDS011;36955;47.416;7.716;2022-10-22T00:07:09;0.77;;;0.60;;
50946;SDS011;36955;47.416;7.716;2022-10-22T00:09:35;0.50;;;0.50;;
50946;SDS011;36955;47.416;7.716;2022-10-22T00:12:01;0.82;;;0.68;;
50946;SDS011;36955;47.416;7.716;2022-10-22T00:14:27;1.60;;;0.95;;
50946;SDS011;36955;47.416;7.716;2022-10-22T00:16:53;2.05;;;0.60;;
50946;SDS011;36955;47.416;7.716;2022-10-22T00:19:19;1.42;;;0.60;;
50946;SDS011;36955;47.416;7.716;2022-10-22T00:21:45;0.65;;;0.50;;
50946;SDS011;36955;47.416;7.716;2022-10-22T00:24:11;2.45;;;0.60;;
50946;SDS011;36955;47.416;7.716;2022-10-22T00:26:37;1.13;;;0.90;;
50946;SDS011;36955;47.416;7.716;2022-10-22T00:29:03;2.53;;;1.60;;
50946;SDS011;36955;47.416;7.716;2022-10-22T00:31:30;1.95;;;1.10;;
50946;SDS011;36955;47.416;7.716;2022-10-22T00:33:56;2.33;;;0.82;;
50946;SDS011;36955;47.416;7.716;2022-10-22T00:36:22;2.80;;;0.75;;
50946;SDS011;36955;47.416;7.716;2022-10-22T00:38:48;0.98;;;0.85;;
50946;SDS011;36955;47.416;7.716;2022-10-22T00:41:14;0.82;;;0.70;;
50946;SDS011;36955;47.416;7.716;2022-10-22T00:44:00;0.77;;;0.77;;
50946;SDS011;36955;47.416;7.716;2022-10-22T00:46:27;0.90;;;0.50;;
50946;SDS011;36955;47.416;7.716;2022-10-22T00:48:54;1.52;;;0.70;;
50946;SDS011;36955;47.416;7.716;2022-10-22T00:51:23;2.10;;;0.68;;
50946;SDS011;36955;47.416;7.716;2022-10-22T00:53:53;0.65;;;0.60;;
50946;SDS011;36955;47.416;7.716;2022-10-22T00:56:22;1.80;;;0.57;;
50946;SDS011;36955;47.416;7.716;2022-10-22T00:58:51;2.15;;;0.73;;
50946;SDS011;36955;47.416;7.716;2022-10-22T01:01:21;0.43;;;0.43;;
50946;SDS011;36955;47.416;7.716;2022-10-22T01:03:50;0.50;;;0.47;;
50946;SDS011;36955;47.416;7.716;2022-10-22T01:06:18;1.60;;;0.88;;
50946;SDS011;36955;47.416;7.716;2022-10-22T01:14:38;0.85;;;0.60;;
50946;SDS011;36955;47.416;7.716;2022-10-22T01:17:24;1.50;;;0.60;;
50946;SDS011;36955;47.416;7.716;2022-10-22T01:23:20;0.60;;;0.57;;
50946;SDS011;36955;47.416;7.716;2022-10-22T01:31:22;0.77;;;0.77;;
50946;SDS011;36955;47.416;7.716;2022-10-22T01:33:50;1.27;;;0.75;;
50946;SDS011;36955;47.416;7.716;2022-10-22T01:36:18;2.07;;;0.70;;
50946;SDS011;36955;47.416;7.716;2022-10-22T01:38:45;0.77;;;0.75;;
50946;SDS011;36955;47.416;7.716;2022-10-22T01:41:14;0.70;;;0.60;;
50946;SDS011;36955;47.416;7.716;2022-10-22T01:43:40;1.13;;;0.70;;
50946;SDS011;36955;47.416;7.716;2022-10-22T01:46:08;0.70;;;0.70;;
50946;SDS011;36955;47.416;7.716;2022-10-22T01:52:02;48.38;;;3.15;;
50946;SDS011;36955;47.416;7.716;2022-10-22T01:54:45;1.52;;;1.27;;
50946;SDS011;36955;47.416;7.716;2022-10-22T01:57:33;0.82;;;0.82;;
50946;SDS011;36955;47.416;7.716;2022-10-22T02:00:08;0.70;;;0.70;;
50946;SDS011;36955;47.416;7.716;2022-10-22T02:02:41;2.40;;;0.90;;
50946;SDS011;36955;47.416;7.716;2022-10-22T02:05:22;0.60;;;0.60;;
50946;SDS011;36955;47.416;7.716;2022-10-22T02:08:00;2.13;;;0.70;;
50946;SDS011;36955;47.416;7.716;2022-10-22T02:10:28;0.65;;;0.50;;
50946;SDS011;36955;47.416;7.716;2022-10-22T02:12:55;0.80;;;0.50;;
50946;SDS011;36955;47.416;7.716;2022-10-22T02:15:24;0.70;;;0.63;;
50946;SDS011;36955;47.416;7.716;2022-10-22T02:17:52;1.08;;;0.68;;
50946;SDS011;36955;47.416;7.716;2022-10-22T02:20:27;1.05;;;0.60;;
50946;SDS011;36955;47.416;7.716;2022-10-22T02:22:56;1.35;;;0.70;;
50946;SDS011;36955;47.416;7.716;2022-10-22T02:25:25;0.60;;;0.50;;
50946;SDS011;36955;47.416;7.716;2022-10-22T02:28:01;1.77;;;0.68;;
50946;SDS011;36955;47.416;7.716;2022-10-22T02:30:45;0.70;;;0.70;;
50946;SDS011;36955;47.416;7.716;2022-10-22T02:33:27;2.63;;;1.23;;
50946;SDS011;36955;47.416;7.716;2022-10-22T02:35:55;1.65;;;1.33;;
50946;SDS011;36955;47.416;7.716;2022-10-22T02:38:23;3.63;;;1.30;;
50946;SDS011;36955;47.416;7.716;2022-10-22T02:40:51;1.45;;;0.70;;
50946;SDS011;36955;47.416;7.716;2022-10-22T02:43:18;1.50;;;0.57;;
50946;SDS011;36955;47.416;7.716;2022-10-22T02:45:44;2.05;;;0.73;;
50946;SDS011;36955;47.416;7.716;2022-10-22T02:48:11;2.80;;;0.77;;
50946;SDS011;36955;47.416;7.716;2022-10-22T02:50:37;2.05;;;0.80;;
50946;SDS011;36955;47.416;7.716;2022-10-22T02:53:03;1.52;;;0.80;;
50946;SDS011;36955;47.416;7.716;2022-10-22T02:55:29;1.20;;;1.00;;
50946;SDS011;36955;47.416;7.716;2022-10-22T02:57:55;0.50;;;0.50;;
50946;SDS011;36955;47.416;7.716;2022-10-22T03:00:21;0.73;;;0.70;;
50946;SDS011;36955;47.416;7.716;2022-10-22T03:02:47;2.33;;;0.70;;
50946;SDS011;36955;47.416;7.716;2022-10-22T03:05:13;0.70;;;0.63;;
50946;SDS011;36955;47.416;7.716;2022-10-22T03:07:39;1.80;;;1.17;;
50946;SDS011;36955;47.416;7.716;2022-10-22T03:10:05;2.85;;;0.65;;
50946;SDS011;36955;47.416;7.716;2022-10-22T03:12:32;0.75;;;0.70;;
50946;SDS011;36955;47.416;7.716;2022-10-22T03:14:58;2.15;;;0.70;;
50946;SDS011;36955;47.416;7.716;2022-10-22T03:17:24;2.47;;;0.80;;
50946;SDS011;36955;47.416;7.716;2022-10-22T03:19:50;1.77;;;0.70;;
50946;SDS011;36955;47.416;7.716;2022-10-22T03:22:17;2.15;;;0.98;;
50946;SDS011;36955;47.416;7.716;2022-10-22T03:24:47;0.77;;;0.60;;
50946;SDS011;36955;47.416;7.716;2022-10-22T03:27:17;0.80;;;0.70;;
50946;SDS011;36955;47.416;7.716;2022-10-22T03:29:46;1.98;;;0.60;;
50946;SDS011;36955;47.416;7.716;2022-10-22T03:32:14;1.90;;;0.68;;
50946;SDS011;36955;47.416;7.716;2022-10-22T03:34:40;1.50;;;0.95;;
50946;SDS011;36955;47.416;7.716;2022-10-22T03:37:06;1.50;;;0.70;;
50946;SDS011;36955;47.416;7.716;2022-10-22T03:39:33;0.60;;;0.60;;
50946;SDS011;36955;47.416;7.716;2022-10-22T03:42:00;2.88;;;0.95;;
50946;SDS011;36955;47.416;7.716;2022-10-22T03:44:27;3.00;;;0.60;;
50946;SDS011;36955;47.416;7.716;2022-10-22T03:46:54;1.27;;;0.70;;
50946;SDS011;36955;47.416;7.716;2022-10-22T03:49:21;2.00;;;1.00;;
50946;SDS011;36955;47.416;7.716;2022-10-22T03:51:47;1.90;;;0.75;;
50946;SDS011;36955;47.416;7.716;2022-10-22T03:54:14;2.13;;;1.00;;
50946;SDS011;36955;47.416;7.716;2022-10-22T03:56:40;1.35;;;0.95;;
50946;SDS011;36955;47.416;7.716;2022-10-22T03:59:06;2.22;;;0.90;;
50946;SDS011;36955;47.416;7.716;2022-10-22T04:01:32;1.45;;;0.80;;
50946;SDS011;36955;47.416;7.716;2022-10-22T04:03:59;1.65;;;0.88;;
50946;SDS011;36955;47.416;7.716;2022-10-22T04:06:25;2.05;;;0.95;;
50946;SDS011;36955;47.416;7.716;2022-10-22T04:08:53;2.00;;;0.80;;
50946;SDS011;36955;47.416;7.716;2022-10-22T04:11:19;1.80;;;0.80;;
50946;SDS011;36955;47.416;7.716;2022-10-22T04:13:45;0.85;;;0.70;;
50946;SDS011;36955;47.416;7.716;2022-10-22T04:16:12;0.60;;;0.60;;
50946;SDS011;36955;47.416;7.716;2022-10-22T04:18:40;1.73;;;0.88;;
50946;SDS011;36955;47.416;7.716;2022-10-22T04:21:08;1.63;;;0.80;;
50946;SDS011;36955;47.416;7.716;2022-10-22T04:23:35;2.75;;;0.70;;
50946;SDS011;36955;47.416;7.716;2022-10-22T04:26:05;1.48;;;0.80;;
50946;SDS011;36955;47.416;7.716;2022-10-22T04:28:32;0.88;;;0.88;;
50946;SDS011;36955;47.416;7.716;2022-10-22T04:30:59;3.22;;;0.93;;
50946;SDS011;36955;47.416;7.716;2022-10-22T04:33:25;1.08;;;0.93;;
50946;SDS011;36955;47.416;7.716;2022-10-22T04:35:51;3.92;;;0.95;;
50946;SDS011;36955;47.416;7.716;2022-10-22T04:38:17;3.13;;;0.95;;
50946;SDS011;36955;47.416;7.716;2022-10-22T04:40:43;3.90;;;0.88;;
50946;SDS011;36955;47.416;7.716;2022-10-22T04:43:09;2.90;;;0.90;;
50946;SDS011;36955;47.416;7.716;2022-10-22T04:45:36;2.10;;;0.93;;
50946;SDS011;36955;47.416;7.716;2022-10-22T04:48:02;1.48;;;1.00;;
50946;SDS011;36955;47.416;7.716;2022-10-22T04:50:28;2.30;;;1.50;;
50946;SDS011;36955;47.416;7.716;2022-10-22T04:52:54;0.98;;;0.77;;
50946;SDS011;36955;47.416;7.716;2022-10-22T04:55:20;1.63;;;0.70;;
50946;SDS011;36955;47.416;7.716;2022-10-22T04:57:46;3.22;;;0.80;;
50946;SDS011;36955;47.416;7.716;2022-10-22T05:00:12;1.55;;;0.80;;
50946;SDS011;36955;47.416;7.716;2022-10-22T05:02:38;3.78;;;0.98;;
50946;SDS011;36955;47.416;7.716;2022-10-22T05:05:04;1.67;;;0.80;;
50946;SDS011;36955;47.416;7.716;2022-10-22T05:07:30;2.60;;;0.90;;
50946;SDS011;36955;47.416;7.716;2022-10-22T05:09:56;1.05;;;0.68;;
50946;SDS011;36955;47.416;7.716;2022-10-22T05:12:22;1.92;;;0.68;;
50946;SDS011;36955;47.416;7.716;2022-10-22T05:14:48;1.52;;;0.80;;
50946;SDS011;36955;47.416;7.716;2022-10-22T05:17:14;1.55;;;0.60;;
50946;SDS011;36955;47.416;7.716;2022-10-22T05:19:40;0.85;;;0.43;;
50946;SDS011;36955;47.416;7.716;2022-10-22T05:22:06;1.70;;;0.80;;
50946;SDS011;36955;47.416;7.716;2022-10-22T05:24:32;1.67;;;0.57;;
50946;SDS011;36955;47.416;7.716;2022-10-22T05:26:59;0.80;;;0.70;;
50946;SDS011;36955;47.416;7.716;2022-10-22T05:29:25;0.90;;;0.50;;
50946;SDS011;36955;47.416;7.716;2022-10-22T05:31:51;0.57;;;0.57;;
50946;SDS011;36955;47.416;7.716;2022-10-22T05:34:18;2.15;;;0.70;;
50946;SDS011;36955;47.416;7.716;2022-10-22T05:36:44;1.27;;;0.70;;
50946;SDS011;36955;47.416;7.716;2022-10-22T05:39:11;0.68;;;0.60;;
50946;SDS011;36955;47.416;7.716;2022-10-22T05:41:37;1.25;;;0.50;;
50946;SDS011;36955;47.416;7.716;2022-10-22T05:44:03;2.15;;;0.60;;
50946;SDS011;36955;47.416;7.716;2022-10-22T05:46:32;1.50;;;0.70;;
50946;SDS011;36955;47.416;7.716;2022-10-22T05:49:01;1.63;;;0.65;;
50946;SDS011;36955;47.416;7.716;2022-10-22T05:51:29;1.50;;;0.60;;
50946;SDS011;36955;47.416;7.716;2022-10-22T05:53:58;3.13;;;0.70;;
50946;SDS011;36955;47.416;7.716;2022-10-22T05:56:26;2.47;;;0.60;;
50946;SDS011;36955;47.416;7.716;2022-10-22T05:58:53;0.60;;;0.45;;
50946;SDS011;36955;47.416;7.716;2022-10-22T06:01:30;0.38;;;0.30;;
50946;SDS011;36955;47.416;7.716;2022-10-22T06:03:58;0.52;;;0.50;;
50946;SDS011;36955;47.416;7.716;2022-10-22T06:09:03;0.60;;;0.50;;
50946;SDS011;36955;47.416;7.716;2022-10-22T06:11:45;0.80;;;0.50;;
50946;SDS011;36955;47.416;7.716;2022-10-22T06:14:11;0.68;;;0.60;;
50946;SDS011;36955;47.416;7.716;2022-10-22T06:16:38;1.00;;;0.60;;
50946;SDS011;36955;47.416;7.716;2022-10-22T06:19:04;0.57;;;0.40;;
50946;SDS011;36955;47.416;7.716;2022-10-22T06:21:31;0.70;;;0.70;;
50946;SDS011;36955;47.416;7.716;2022-10-22T06:23:58;1.17;;;0.60;;
50946;SDS011;36955;47.416;7.716;2022-10-22T06:26:25;0.40;;;0.40;;
50946;SDS011;36955;47.416;7.716;2022-10-22T06:28:51;2.15;;;0.68;;
50946;SDS011;36955;47.416;7.716;2022-10-22T06:31:18;1.20;;;0.60;;
50946;SDS011;36955;47.416;7.716;2022-10-22T06:33:44;1.20;;;0.88;;
50946;SDS011;36955;47.416;7.716;2022-10-22T06:36:11;0.60;;;0.60;;
50946;SDS011;36955;47.416;7.716;2022-10-22T06:38:39;1.83;;;0.80;;
50946;SDS011;36955;47.416;7.716;2022-10-22T06:41:06;0.57;;;0.50;;
50946;SDS011;36955;47.416;7.716;2022-10-22T06:43:33;1.42;;;0.68;;
50946;SDS011;36955;47.416;7.716;2022-10-22T06:46:00;1.30;;;0.63;;
50946;SDS011;36955;47.416;7.716;2022-10-22T06:48:27;1.10;;;0.52;;
50946;SDS011;36955;47.416;7.716;2022-10-22T06:50:54;0.95;;;0.50;;
50946;SDS011;36955;47.416;7.716;2022-10-22T06:53:20;0.95;;;0.50;;
50946;SDS011;36955;47.416;7.716;2022-10-22T06:55:46;2.38;;;0.55;;
50946;SDS011;36955;47.416;7.716;2022-10-22T06:58:12;3.65;;;0.50;;
50946;SDS011;36955;47.416;7.716;2022-10-22T07:00:38;2.38;;;0.60;;
50946;SDS011;36955;47.416;7.716;2022-10-22T07:03:04;1.10;;;0.60;;
50946;SDS011;36955;47.416;7.716;2022-10-22T07:05:32;1.45;;;0.60;;
50946;SDS011;36955;47.416;7.716;2022-10-22T07:07:58;1.02;;;0.65;;
50946;SDS011;36955;47.416;7.716;2022-10-22T07:10:24;1.95;;;0.80;;
50946;SDS011;36955;47.416;7.716;2022-10-22T07:12:50;3.35;;;0.50;;
50946;SDS011;36955;47.416;7.716;2022-10-22T07:15:16;1.00;;;0.50;;
50946;SDS011;36955;47.416;7.716;2022-10-22T07:17:42;1.85;;;0.60;;
50946;SDS011;36955;47.416;7.716;2022-10-22T07:20:08;0.95;;;0.50;;
50946;SDS011;36955;47.416;7.716;2022-10-22T07:22:35;1.73;;;0.50;;
50946;SDS011;36955;47.416;7.716;2022-10-22T07:25:01;1.15;;;0.40;;
50946;SDS011;36955;47.416;7.716;2022-10-22T07:27:27;1.73;;;0.40;;
50946;SDS011;36955;47.416;7.716;2022-10-22T07:29:53;1.52;;;0.77;;
50946;SDS011;36955;47.416;7.716;2022-10-22T07:32:19;0.45;;;0.43;;
50946;SDS011;36955;47.416;7.716;2022-10-22T07:34:45;1.38;;;0.63;;
50946;SDS011;36955;47.416;7.716;2022-10-22T07:37:11;0.55;;;0.45;;
50946;SDS011;36955;47.416;7.716;2022-10-22T07:39:37;0.90;;;0.50;;
50946;SDS011;36955;47.416;7.716;2022-10-22T07:42:03;1.73;;;0.40;;
50946;SDS011;36955;47.416;7.716;2022-10-22T07:44:29;0.95;;;0.47;;
50946;SDS011;36955;47.416;7.716;2022-10-22T07:46:55;1.70;;;0.55;;
50946;SDS011;36955;47.416;7.716;2022-10-22T07:49:21;3.08;;;0.50;;
50946;SDS011;36955;47.416;7.716;2022-10-22T07:51:47;3.08;;;0.40;;
50946;SDS011;36955;47.416;7.716;2022-10-22T07:54:13;3.45;;;0.80;;
50946;SDS011;36955;47.416;7.716;2022-10-22T07:56:39;2.75;;;0.60;;
50946;SDS011;36955;47.416;7.716;2022-10-22T07:59:06;1.23;;;0.60;;
50946;SDS011;36955;47.416;7.716;2022-10-22T08:01:32;1.13;;;0.60;;
50946;SDS011;36955;47.416;7.716;2022-10-22T08:03:58;2.58;;;0.50;;
50946;SDS011;36955;47.416;7.716;2022-10-22T08:06:24;1.38;;;0.73;;
50946;SDS011;36955;47.416;7.716;2022-10-22T08:08:50;0.70;;;0.50;;
50946;SDS011;36955;47.416;7.716;2022-10-22T08:11:16;1.85;;;0.45;;
50946;SDS011;36955;47.416;7.716;2022-10-22T08:13:42;0.93;;;0.43;;
50946;SDS011;36955;47.416;7.716;2022-10-22T08:16:08;0.47;;;0.43;;
50946;SDS011;36955;47.416;7.716;2022-10-22T08:18:34;2.25;;;0.50;;
50946;SDS011;36955;47.416;7.716;2022-10-22T08:21:00;0.80;;;0.50;;
50946;SDS011;36955;47.416;7.716;2022-10-22T08:23:26;0.63;;;0.50;;
50946;SDS011;36955;47.416;7.716;2022-10-22T08:25:52;3.58;;;0.40;;
50946;SDS011;36955;47.416;7.716;2022-10-22T08:28:18;1.35;;;0.57;;
50946;SDS011;36955;47.416;7.716;2022-10-22T08:30:44;2.72;;;0.60;;
50946;SDS011;36955;47.416;7.716;2022-10-22T08:33:10;0.43;;;0.40;;
50946;SDS011;36955;47.416;7.716;2022-10-22T08:35:36;3.30;;;0.90;;
50946;SDS011;36955;47.416;7.716;2022-10-22T08:38:02;1.65;;;0.57;;
50946;SDS011;36955;47.416;7.716;2022-10-22T08:40:32;1.20;;;0.52;;
50946;SDS011;36955;47.416;7.716;2022-10-22T08:43:45;1.67;;;0.50;;
50946;SDS011;36955;47.416;7.716;2022-10-22T08:49:17;2.47;;;0.82;;
50946;SDS011;36955;47.416;7.716;2022-10-22T08:51:46;3.72;;;0.70;;
50946;SDS011;36955;47.416;7.716;2022-10-22T08:54:18;2.72;;;0.60;;
50946;SDS011;36955;47.416;7.716;2022-10-22T08:56:52;0.55;;;0.38;;
50946;SDS011;36955;47.416;7.716;2022-10-22T08:59:51;0.50;;;0.50;;
50946;SDS011;36955;47.416;7.716;2022-10-22T09:02:34;1.88;;;0.60;;
50946;SDS011;36955;47.416;7.716;2022-10-22T09:05:20;1.60;;;0.63;;
50946;SDS011;36955;47.416;7.716;2022-10-22T09:07:59;2.58;;;0.50;;
50946;SDS011;36955;47.416;7.716;2022-10-22T09:10:28;1.10;;;0.45;;
50946;SDS011;36955;47.416;7.716;2022-10-22T09:12:57;3.42;;;0.95;;
50946;SDS011;36955;47.416;7.716;2022-10-22T09:15:23;2.50;;;2.10;;
50946;SDS011;36955;47.416;7.716;2022-10-22T09:20:52;1.95;;;0.80;;
50946;SDS011;36955;47.416;7.716;2022-10-22T09:25:57;4.20;;;1.00;;
50946;SDS011;36955;47.416;7.716;2022-10-22T09:28:24;1.05;;;0.60;;
50946;SDS011;36955;47.416;7.716;2022-10-22T09:30:50;1.83;;;0.60;;
50946;SDS011;36955;47.416;7.716;2022-10-22T09:33:23;1.05;;;0.65;;
50946;SDS011;36955;47.416;7.716;2022-10-22T09:35:55;2.25;;;0.65;;
50946;SDS011;36955;47.416;7.716;2022-10-22T09:38:28;1.70;;;0.60;;
50946;SDS011;36955;47.416;7.716;2022-10-22T09:40:57;3.17;;;0.60;;
50946;SDS011;36955;47.416;7.716;2022-10-22T09:43:24;0.80;;;0.60;;
50946;SDS011;36955;47.416;7.716;2022-10-22T09:45:54;1.85;;;0.85;;
50946;SDS011;36955;47.416;7.716;2022-10-22T09:48:43;3.45;;;0.75;;
50946;SDS011;36955;47.416;7.716;2022-10-22T09:51:19;1.73;;;0.70;;
50946;SDS011;36955;47.416;7.716;2022-10-22T09:53:58;1.08;;;0.60;;
50946;SDS011;36955;47.416;7.716;2022-10-22T09:56:27;2.60;;;0.70;;
50946;SDS011;36955;47.416;7.716;2022-10-22T09:59:01;1.58;;;0.70;;
50946;SDS011;36955;47.416;7.716;2022-10-22T10:01:29;2.78;;;0.60;;
50946;SDS011;36955;47.416;7.716;2022-10-22T10:04:08;2.38;;;0.88;;
50946;SDS011;36955;47.416;7.716;2022-10-22T10:06:36;2.95;;;0.57;;
50946;SDS011;36955;47.416;7.716;2022-10-22T10:09:17;1.42;;;0.70;;
50946;SDS011;36955;47.416;7.716;2022-10-22T10:11:47;1.05;;;0.60;;
50946;SDS011;36955;47.416;7.716;2022-10-22T10:28:12;1.13;;;0.60;;
50946;SDS011;36955;47.416;7.716;2022-10-22T10:30:46;5.40;;;1.10;;
50946;SDS011;36955;47.416;7.716;2022-10-22T10:33:27;0.50;;;0.40;;
50946;SDS011;36955;47.416;7.716;2022-10-22T10:38:59;1.67;;;0.70;;
50946;SDS011;36955;47.416;7.716;2022-10-22T10:47:49;0.75;;;0.60;;
50946;SDS011;36955;47.416;7.716;2022-10-22T10:58:30;3.38;;;0.70;;
50946;SDS011;36955;47.416;7.716;2022-10-22T11:01:14;0.98;;;0.60;;
50946;SDS011;36955;47.416;7.716;2022-10-22T11:06:36;2.35;;;1.02;;
50946;SDS011;36955;47.416;7.716;2022-10-22T11:09:06;2.22;;;0.90;;
50946;SDS011;36955;47.416;7.716;2022-10-22T11:11:50;1.00;;;0.60;;
50946;SDS011;36955;47.416;7.716;2022-10-22T11:19:36;1.58;;;0.68;;
50946;SDS011;36955;47.416;7.716;2022-10-22T11:24:59;1.30;;;0.82;;
50946;SDS011;36955;47.416;7.716;2022-10-22T11:27:29;2.83;;;0.90;;
50946;SDS011;36955;47.416;7.716;2022-10-22T11:30:12;2.55;;;0.90;;
50946;SDS011;36955;47.416;7.716;2022-10-22T11:32:44;2.00;;;0.98;;
50946;SDS011;36955;47.416;7.716;2022-10-22T11:35:17;2.20;;;0.57;;
50946;SDS011;36955;47.416;7.716;2022-10-22T11:37:50;2.65;;;0.80;;
50946;SDS011;36955;47.416;7.716;2022-10-22T11:40:21;6.78;;;0.80;;
50946;SDS011;36955;47.416;7.716;2022-10-22T11:43:08;1.08;;;0.80;;
50946;SDS011;36955;47.416;7.716;2022-10-22T11:45:40;1.48;;;0.80;;
50946;SDS011;36955;47.416;7.716;2022-10-22T11:53:18;1.80;;;0.80;;
50946;SDS011;36955;47.416;7.716;2022-10-22T11:55:55;1.77;;;0.93;;
50946;SDS011;36955;47.416;7.716;2022-10-22T12:06:01;3.55;;;1.02;;
50946;SDS011;36955;47.416;7.716;2022-10-22T12:08:27;2.10;;;0.77;;
50946;SDS011;36955;47.416;7.716;2022-10-22T12:10:57;3.08;;;1.00;;
50946;SDS011;36955;47.416;7.716;2022-10-22T12:16:21;5.10;;;3.35;;
50946;SDS011;36955;47.416;7.716;2022-10-22T12:18:48;9.70;;;3.70;;
50946;SDS011;36955;47.416;7.716;2022-10-22T12:21:25;5.78;;;2.80;;
50946;SDS011;36955;47.416;7.716;2022-10-22T12:23:51;3.70;;;2.70;;
50946;SDS011;36955;47.416;7.716;2022-10-22T12:26:29;4.22;;;2.60;;
50946;SDS011;36955;47.416;7.716;2022-10-22T12:28:57;3.47;;;1.50;;
50946;SDS011;36955;47.416;7.716;2022-10-22T12:31:24;1.83;;;1.30;;
50946;SDS011;36955;47.416;7.716;2022-10-22T12:33:57;2.35;;;1.10;;
50946;SDS011;36955;47.416;7.716;2022-10-22T12:36:26;1.52;;;1.15;;
50946;SDS011;36955;47.416;7.716;2022-10-22T12:38:53;1.42;;;1.00;;
50946;SDS011;36955;47.416;7.716;2022-10-22T12:41:20;3.40;;;1.00;;
50946;SDS011;36955;47.416;7.716;2022-10-22T12:43:57;2.92;;;1.10;;
50946;SDS011;36955;47.416;7.716;2022-10-22T12:46:28;1.88;;;1.30;;
50946;SDS011;36955;47.416;7.716;2022-10-22T12:48:58;1.42;;;1.00;;
50946;SDS011;36955;47.416;7.716;2022-10-22T12:51:26;1.38;;;0.90;;
50946;SDS011;36955;47.416;7.716;2022-10-22T12:53:53;3.83;;;1.50;;
50946;SDS011;36955;47.416;7.716;2022-10-22T12:56:25;3.47;;;1.10;;
50946;SDS011;36955;47.416;7.716;2022-10-22T12:58:57;1.95;;;1.10;;
50946;SDS011;36955;47.416;7.716;2022-10-22T13:01:33;1.98;;;1.00;;
50946;SDS011;36955;47.416;7.716;2022-10-22T13:04:16;1.00;;;0.80;;
50946;SDS011;36955;47.416;7.716;2022-10-22T13:06:46;1.30;;;1.00;;
50946;SDS011;36955;47.416;7.716;2022-10-22T13:11:51;4.07;;;0.98;;
50946;SDS011;36955;47.416;7.716;2022-10-22T13:14:28;2.08;;;0.80;;
50946;SDS011;36955;47.416;7.716;2022-10-22T13:19:47;1.83;;;0.98;;
50946;SDS011;36955;47.416;7.716;2022-10-22T13:25:18;4.55;;;1.23;;
50946;SDS011;36955;47.416;7.716;2022-10-22T13:27:56;2.30;;;0.70;;
50946;SDS011;36955;47.416;7.716;2022-10-22T13:30:28;4.88;;;1.00;;
50946;SDS011;36955;47.416;7.716;2022-10-22T13:33:01;1.83;;;0.95;;
50946;SDS011;36955;47.416;7.716;2022-10-22T13:35:36;3.15;;;0.88;;
50946;SDS011;36955;47.416;7.716;2022-10-22T13:38:05;3.08;;;0.90;;
50946;SDS011;36955;47.416;7.716;2022-10-22T13:40:40;1.30;;;0.70;;
50946;SDS011;36955;47.416;7.716;2022-10-22T13:43:06;2.22;;;0.60;;
50946;SDS011;36955;47.416;7.716;2022-10-22T13:45:32;2.60;;;1.00;;
50946;SDS011;36955;47.416;7.716;2022-10-22T13:47:58;2.72;;;0.85;;
50946;SDS011;36955;47.416;7.716;2022-10-22T13:50:24;4.32;;;1.42;;
50946;SDS011;36955;47.416;7.716;2022-10-22T13:52:54;1.95;;;0.80;;
50946;SDS011;36955;47.416;7.716;2022-10-22T13:55:23;6.77;;;0.97;;
50946;SDS011;36955;47.416;7.716;2022-10-22T13:58:00;1.60;;;0.85;;
50946;SDS011;36955;47.416;7.716;2022-10-22T14:00:35;2.90;;;0.80;;
50946;SDS011;36955;47.416;7.716;2022-10-22T14:03:03;1.10;;;0.82;;
50946;SDS011;36955;47.416;7.716;2022-10-22T14:05:30;1.23;;;0.90;;
50946;SDS011;36955;47.416;7.716;2022-10-22T14:07:59;2.45;;;1.13;;
50946;SDS011;36955;47.416;7.716;2022-10-22T14:10:26;2.15;;;1.10;;
50946;SDS011;36955;47.416;7.716;2022-10-22T14:12:52;1.45;;;0.80;;
50946;SDS011;36955;47.416;7.716;2022-10-22T14:15:20;2.67;;;1.08;;
50946;SDS011;36955;47.416;7.716;2022-10-22T14:17:52;1.75;;;0.90;;
50946;SDS011;36955;47.416;7.716;2022-10-22T14:20:24;2.55;;;0.90;;
50946;SDS011;36955;47.416;7.716;2022-10-22T14:22:53;2.78;;;0.80;;
50946;SDS011;36955;47.416;7.716;2022-10-22T14:25:21;2.78;;;0.98;;
50946;SDS011;36955;47.416;7.716;2022-10-22T14:27:48;1.25;;;0.80;;
50946;SDS011;36955;47.416;7.716;2022-10-22T14:30:16;2.45;;;0.80;;
50946;SDS011;36955;47.416;7.716;2022-10-22T14:32:44;1.67;;;0.90;;
50946;SDS011;36955;47.416;7.716;2022-10-22T14:35:11;1.02;;;0.90;;
50946;SDS011;36955;47.416;7.716;2022-10-22T14:37:38;5.28;;;2.60;;
50946;SDS011;36955;47.416;7.716;2022-10-22T14:40:04;3.10;;;1.50;;
50946;SDS011;36955;47.416;7.716;2022-10-22T14:42:31;3.83;;;2.33;;
50946;SDS011;36955;47.416;7.716;2022-10-22T14:45:01;3.47;;;1.00;;
50946;SDS011;36955;47.416;7.716;2022-10-22T14:47:27;1.65;;;0.88;;
50946;SDS011;36955;47.416;7.716;2022-10-22T14:49:53;1.48;;;0.63;;
50946;SDS011;36955;47.416;7.716;2022-10-22T14:52:19;1.73;;;0.90;;
50946;SDS011;36955;47.416;7.716;2022-10-22T14:54:45;2.30;;;1.17;;
50946;SDS011;36955;47.416;7.716;2022-10-22T14:57:11;1.77;;;0.80;;
50946;SDS011;36955;47.416;7.716;2022-10-22T14:59:37;2.67;;;0.55;;
50946;SDS011;36955;47.416;7.716;2022-10-22T15:02:03;2.95;;;0.50;;
50946;SDS011;36955;47.416;7.716;2022-10-22T15:04:29;1.48;;;0.52;;
50946;SDS011;36955;47.416;7.716;2022-10-22T15:06:55;1.48;;;0.60;;
50946;SDS011;36955;47.416;7.716;2022-10-22T15:09:22;1.85;;;0.60;;
50946;SDS011;36955;47.416;7.716;2022-10-22T15:11:48;0.50;;;0.40;;
50946;SDS011;36955;47.416;7.716;2022-10-22T15:14:15;0.80;;;0.60;;
50946;SDS011;36955;47.416;7.716;2022-10-22T15:16:41;2.33;;;0.60;;
50946;SDS011;36955;47.416;7.716;2022-10-22T15:19:07;1.33;;;0.55;;
50946;SDS011;36955;47.416;7.716;2022-10-22T15:21:33;1.58;;;0.60;;
50946;SDS011;36955;47.416;7.716;2022-10-22T15:23:59;6.85;;;3.88;;
50946;SDS011;36955;47.416;7.716;2022-10-22T15:26:25;10.20;;;4.85;;
50946;SDS011;36955;47.416;7.716;2022-10-22T15:28:51;3.70;;;2.20;;
50946;SDS011;36955;47.416;7.716;2022-10-22T15:31:17;4.18;;;2.40;;
50946;SDS011;36955;47.416;7.716;2022-10-22T15:34:06;3.60;;;1.00;;
50946;SDS011;36955;47.416;7.716;2022-10-22T15:36:32;2.70;;;0.82;;
50946;SDS011;36955;47.416;7.716;2022-10-22T15:38:58;5.00;;;3.28;;
50946;SDS011;36955;47.416;7.716;2022-10-22T15:41:24;3.08;;;1.25;;
50946;SDS011;36955;47.416;7.716;2022-10-22T15:43:50;1.63;;;0.75;;
50946;SDS011;36955;47.416;7.716;2022-10-22T15:46:18;3.45;;;0.98;;
50946;SDS011;36955;47.416;7.716;2022-10-22T15:48:44;1.30;;;0.57;;
50946;SDS011;36955;47.416;7.716;2022-10-22T15:51:14;0.88;;;0.63;;
50946;SDS011;36955;47.416;7.716;2022-10-22T15:53:42;5.68;;;1.52;;
50946;SDS011;36955;47.416;7.716;2022-10-22T15:56:09;2.25;;;1.50;;
50946;SDS011;36955;47.416;7.716;2022-10-22T15:58:35;0.98;;;0.95;;
50946;SDS011;36955;47.416;7.716;2022-10-22T16:01:03;1.83;;;0.90;;
50946;SDS011;36955;47.416;7.716;2022-10-22T16:03:30;1.15;;;0.75;;
50946;SDS011;36955;47.416;7.716;2022-10-22T16:05:56;2.22;;;0.82;;
50946;SDS011;36955;47.416;7.716;2022-10-22T16:08:23;1.08;;;0.80;;
50946;SDS011;36955;47.416;7.716;2022-10-22T16:10:49;1.50;;;1.00;;
50946;SDS011;36955;47.416;7.716;2022-10-22T16:13:15;2.15;;;1.13;;
50946;SDS011;36955;47.416;7.716;2022-10-22T16:15:41;4.47;;;1.70;;
50946;SDS011;36955;47.416;7.716;2022-10-22T16:18:07;1.25;;;0.70;;
50946;SDS011;36955;47.416;7.716;2022-10-22T16:20:37;3.40;;;0.70;;
50946;SDS011;36955;47.416;7.716;2022-10-22T16:23:04;4.55;;;0.95;;
50946;SDS011;36955;47.416;7.716;2022-10-22T16:25:35;1.48;;;0.60;;
50946;SDS011;36955;47.416;7.716;2022-10-22T16:28:05;0.85;;;0.60;;
50946;SDS011;36955;47.416;7.716;2022-10-22T16:30:32;1.83;;;1.08;;
50946;SDS011;36955;47.416;7.716;2022-10-22T16:33:03;0.80;;;0.70;;
50946;SDS011;36955;47.416;7.716;2022-10-22T16:35:30;3.53;;;1.10;;